createdAt,value
2024-03-31T00:00:38.338Z,0.00
2024-03-31T00:01:38.293Z,0.00
2024-03-31T00:02:38.304Z,0.00
2024-03-31T00:03:38.360Z,0.00
2024-03-31T00:04:38.281Z,0.00
2024-03-31T00:05:38.252Z,0.00
2024-03-31T00:06:38.246Z,0.00
2024-03-31T00:07:38.255Z,0.00
2024-03-31T00:08:38.223Z,0.00
2024-03-31T00:09:38.237Z,0.00
2024-03-31T00:10:38.198Z,0.00
2024-03-31T00:11:38.291Z,0.00
2024-03-31T00:12:38.199Z,0.00
2024-03-31T00:13:38.169Z,0.00
2024-03-31T00:14:38.172Z,0.00
2024-03-31T00:15:38.235Z,0.00
2024-03-31T00:16:38.173Z,0.00
2024-03-31T00:17:38.203Z,0.00
2024-03-31T00:18:38.127Z,0.00
2024-03-31T00:19:38.119Z,0.00
2024-03-31T00:20:38.115Z,0.00
2024-03-31T00:21:38.130Z,0.00
2024-03-31T00:22:38.089Z,0.00
2024-03-31T00:23:38.080Z,0.00
2024-03-31T00:24:38.094Z,0.00
2024-03-31T00:25:38.056Z,0.00
2024-03-31T00:26:38.056Z,0.00
2024-03-31T00:27:38.067Z,0.00
2024-03-31T00:28:38.039Z,0.00
2024-03-31T00:29:38.085Z,0.00
2024-03-31T00:30:38.055Z,0.00
2024-03-31T00:31:38.015Z,0.00
2024-03-31T00:32:37.987Z,0.00
2024-03-31T00:33:37.984Z,0.00
2024-03-31T00:34:37.979Z,0.00
2024-03-31T00:35:37.982Z,0.00
2024-03-31T00:36:37.966Z,0.00
2024-03-31T00:37:37.962Z,0.00
2024-03-31T00:38:37.933Z,0.00
2024-03-31T00:39:38.010Z,0.00
2024-03-31T00:40:37.924Z,0.00
2024-03-31T00:41:37.911Z,0.00
2024-03-31T00:42:37.922Z,0.00
2024-03-31T00:43:37.898Z,0.00
2024-03-31T00:44:37.907Z,0.00
2024-03-31T00:45:37.895Z,0.00
2024-03-31T00:46:37.851Z,0.00
2024-03-31T00:47:37.840Z,0.00
2024-03-31T00:48:37.853Z,0.00
2024-03-31T00:49:37.836Z,0.00
2024-03-31T00:50:37.816Z,0.00
2024-03-31T00:51:37.841Z,0.00
2024-03-31T00:52:37.792Z,0.00
2024-03-31T00:53:38.798Z,0.00
2024-03-31T00:54:37.833Z,0.00
2024-03-31T00:55:37.755Z,0.00
2024-03-31T00:56:37.749Z,0.00
2024-03-31T00:57:37.750Z,0.00
2024-03-31T00:58:37.751Z,0.00
2024-03-31T00:59:37.748Z,0.00
2024-03-31T01:00:37.748Z,0.00
2024-03-31T01:01:37.707Z,0.00
2024-03-31T01:02:37.691Z,0.00
2024-03-31T01:03:37.723Z,0.00
2024-03-31T01:04:37.664Z,0.00
2024-03-31T01:05:37.671Z,0.00
2024-03-31T01:06:37.712Z,0.00
2024-03-31T01:07:37.640Z,0.00
2024-03-31T01:08:37.646Z,0.00
2024-03-31T01:09:37.637Z,0.00
2024-03-31T01:10:37.629Z,0.00
2024-03-31T01:11:37.596Z,0.00
2024-03-31T01:12:37.652Z,0.00
2024-03-31T01:13:37.598Z,0.00
2024-03-31T01:14:37.584Z,0.00
2024-03-31T01:15:37.588Z,0.00
2024-03-31T01:16:37.561Z,0.00
2024-03-31T01:17:37.567Z,0.00
2024-03-31T01:18:37.578Z,0.00
2024-03-31T01:19:37.559Z,0.00
2024-03-31T01:20:37.535Z,0.00
2024-03-31T01:21:37.590Z,0.00
2024-03-31T01:22:37.529Z,0.00
2024-03-31T01:23:37.480Z,0.00
2024-03-31T01:24:37.518Z,0.00
2024-03-31T01:25:37.469Z,0.00
2024-03-31T01:26:37.478Z,0.00
2024-03-31T01:27:37.464Z,0.00
2024-03-31T01:28:37.463Z,0.00
2024-03-31T01:29:37.447Z,0.00
2024-03-31T01:30:37.456Z,0.00
2024-03-31T01:31:37.433Z,0.00
2024-03-31T01:32:37.406Z,0.00
2024-03-31T01:33:37.426Z,0.00
2024-03-31T01:34:37.387Z,0.00
2024-03-31T01:35:37.392Z,0.00
2024-03-31T01:36:37.407Z,0.00
2024-03-31T01:37:37.361Z,0.00
2024-03-31T01:38:43.564Z,0.00
2024-03-31T01:39:39.377Z,0.00
2024-03-31T01:40:37.357Z,0.00
2024-03-31T01:41:37.340Z,0.00
2024-03-31T01:42:37.335Z,0.00
2024-03-31T01:43:38.304Z,0.00
2024-03-31T01:44:37.288Z,0.00
2024-03-31T01:45:37.320Z,0.00
2024-03-31T01:46:37.266Z,0.00
2024-03-31T01:47:37.255Z,0.00
2024-03-31T01:48:37.254Z,0.00
2024-03-31T01:49:37.244Z,0.00
2024-03-31T01:50:37.240Z,0.00
2024-03-31T01:51:37.240Z,0.00
2024-03-31T01:52:37.225Z,0.00
2024-03-31T01:53:37.203Z,0.00
2024-03-31T01:54:37.221Z,0.00
2024-03-31T01:55:37.200Z,0.00
2024-03-31T01:56:37.169Z,0.00
2024-03-31T01:57:37.170Z,0.00
2024-03-31T01:58:37.155Z,0.00
2024-03-31T01:59:37.170Z,0.00
2024-03-31T02:00:37.201Z,0.00
2024-03-31T02:01:37.120Z,0.00
2024-03-31T02:02:37.140Z,0.00
2024-03-31T02:03:37.097Z,0.00
2024-03-31T02:04:37.107Z,0.00
2024-03-31T02:05:37.097Z,0.00
2024-03-31T02:06:37.077Z,0.00
2024-03-31T02:07:37.069Z,0.00
2024-03-31T02:08:37.066Z,0.00
2024-03-31T02:09:37.095Z,0.00
2024-03-31T02:10:37.073Z,0.00
2024-03-31T02:11:37.025Z,0.00
2024-03-31T02:12:37.049Z,0.00
2024-03-31T02:13:37.033Z,0.00
2024-03-31T02:14:36.993Z,0.00
2024-03-31T02:15:37.020Z,0.00
2024-03-31T02:16:36.983Z,0.00
2024-03-31T02:17:36.972Z,0.00
2024-03-31T02:18:37.053Z,0.00
2024-03-31T02:19:36.962Z,0.00
2024-03-31T02:20:36.937Z,0.00
2024-03-31T02:21:36.975Z,0.00
2024-03-31T02:22:36.985Z,0.00
2024-03-31T02:23:36.984Z,0.00
2024-03-31T02:24:36.936Z,0.00
2024-03-31T02:25:36.964Z,0.00
2024-03-31T02:26:36.916Z,0.00
2024-03-31T02:27:37.064Z,0.00
2024-03-31T02:28:36.954Z,0.00
2024-03-31T02:29:36.851Z,0.00
2024-03-31T02:30:36.930Z,0.00
2024-03-31T02:31:36.835Z,0.00
2024-03-31T02:32:36.874Z,0.00
2024-03-31T02:33:36.830Z,0.00
2024-03-31T02:34:36.822Z,0.00
2024-03-31T02:35:36.796Z,0.00
2024-03-31T02:36:36.782Z,0.00
2024-03-31T02:37:36.795Z,0.00
2024-03-31T02:38:36.771Z,0.00
2024-03-31T02:39:36.792Z,0.00
2024-03-31T02:40:36.754Z,0.00
2024-03-31T02:41:36.759Z,0.00
2024-03-31T02:42:36.764Z,0.00
2024-03-31T02:43:36.723Z,0.00
2024-03-31T02:44:36.703Z,0.00
2024-03-31T02:45:37.723Z,0.00
2024-03-31T02:46:36.715Z,0.00
2024-03-31T02:47:36.683Z,0.00
2024-03-31T02:48:36.681Z,0.00
2024-03-31T02:49:36.663Z,0.00
2024-03-31T02:50:36.662Z,0.00
2024-03-31T02:51:36.728Z,0.00
2024-03-31T02:52:36.630Z,0.00
2024-03-31T02:53:36.613Z,0.00
2024-03-31T02:54:36.619Z,0.00
2024-03-31T02:55:36.619Z,0.00
2024-03-31T02:56:36.607Z,0.00
2024-03-31T02:57:36.585Z,0.00
2024-03-31T02:58:36.580Z,0.00
2024-03-31T02:59:36.567Z,0.00
2024-03-31T03:00:36.624Z,0.00
2024-03-31T03:01:36.542Z,0.00
2024-03-31T03:02:45.859Z,0.00
2024-03-31T03:03:38.543Z,0.00
2024-03-31T03:04:36.527Z,0.00
2024-03-31T03:05:36.526Z,0.00
2024-03-31T03:06:36.536Z,0.00
2024-03-31T03:07:36.506Z,0.00
2024-03-31T03:08:36.481Z,0.00
2024-03-31T03:09:36.531Z,0.00
2024-03-31T03:10:36.472Z,0.00
2024-03-31T03:11:37.445Z,0.00
2024-03-31T03:12:36.443Z,0.00
2024-03-31T03:13:36.440Z,0.00
2024-03-31T03:14:36.442Z,0.00
2024-03-31T03:15:36.437Z,0.00
2024-03-31T03:16:36.421Z,0.00
2024-03-31T03:17:36.406Z,0.00
2024-03-31T03:18:36.474Z,0.00
2024-03-31T03:19:36.397Z,0.00
2024-03-31T03:20:36.364Z,0.00
2024-03-31T03:21:36.354Z,0.00
2024-03-31T03:22:36.351Z,0.00
2024-03-31T03:23:36.354Z,0.00
2024-03-31T03:24:36.362Z,0.00
2024-03-31T03:25:36.311Z,0.00
2024-03-31T03:26:36.306Z,0.00
2024-03-31T03:27:36.303Z,0.00
2024-03-31T03:28:36.425Z,0.00
2024-03-31T03:29:36.271Z,0.00
2024-03-31T03:30:36.286Z,0.00
2024-03-31T03:31:36.304Z,0.00
2024-03-31T03:32:36.248Z,0.00
2024-03-31T03:33:36.275Z,0.00
2024-03-31T03:34:36.230Z,0.00
2024-03-31T03:35:36.214Z,0.00
2024-03-31T03:36:36.233Z,0.00
2024-03-31T03:37:36.209Z,0.00
2024-03-31T03:38:36.207Z,0.00
2024-03-31T03:39:36.187Z,0.00
2024-03-31T03:40:36.185Z,0.00
2024-03-31T03:41:36.171Z,0.00
2024-03-31T03:42:36.208Z,0.00
2024-03-31T03:43:36.135Z,0.00
2024-03-31T03:44:36.138Z,0.00
2024-03-31T03:45:36.161Z,0.00
2024-03-31T03:46:36.159Z,0.00
2024-03-31T03:47:36.115Z,0.00
2024-03-31T03:48:36.103Z,0.00
2024-03-31T03:49:36.081Z,0.00
2024-03-31T03:50:36.069Z,0.00
2024-03-31T03:51:36.080Z,0.00
2024-03-31T03:52:36.126Z,0.00
2024-03-31T03:53:36.044Z,0.00
2024-03-31T03:54:36.028Z,0.00
2024-03-31T03:55:36.037Z,0.00
2024-03-31T03:56:36.024Z,0.00
2024-03-31T03:57:36.003Z,0.00
2024-03-31T03:58:35.998Z,0.00
2024-03-31T03:59:35.984Z,0.00
2024-03-31T04:00:35.967Z,0.00
2024-03-31T04:01:35.985Z,0.00
2024-03-31T04:02:35.956Z,0.00
2024-03-31T04:03:35.960Z,0.00
2024-03-31T04:04:35.932Z,0.00
2024-03-31T04:05:35.939Z,0.00
2024-03-31T04:06:35.930Z,0.00
2024-03-31T04:07:35.902Z,0.00
2024-03-31T04:08:35.894Z,0.00
2024-03-31T04:09:35.900Z,0.00
2024-03-31T04:10:35.895Z,0.00
2024-03-31T04:11:35.862Z,0.00
2024-03-31T04:12:35.862Z,0.00
2024-03-31T04:13:35.852Z,0.00
2024-03-31T04:14:35.831Z,0.00
2024-03-31T04:15:35.839Z,0.00
2024-03-31T04:16:35.819Z,0.00
2024-03-31T04:17:35.821Z,0.00
2024-03-31T04:18:35.807Z,0.00
2024-03-31T04:19:35.818Z,0.00
2024-03-31T04:20:35.812Z,0.00
2024-03-31T04:21:35.773Z,0.00
2024-03-31T04:22:35.765Z,0.00
2024-03-31T04:23:35.789Z,0.00
2024-03-31T04:24:35.756Z,0.00
2024-03-31T04:25:35.737Z,0.00
2024-03-31T04:26:35.726Z,0.00
2024-03-31T04:27:35.719Z,0.00
2024-03-31T04:28:35.708Z,0.00
2024-03-31T04:29:35.815Z,0.00
2024-03-31T04:30:35.678Z,0.00
2024-03-31T04:31:35.683Z,0.00
2024-03-31T04:32:35.660Z,0.00
2024-03-31T04:33:35.671Z,0.00
2024-03-31T04:34:35.667Z,0.00
2024-03-31T04:35:35.636Z,0.00
2024-03-31T04:36:35.622Z,0.00
2024-03-31T04:37:35.631Z,0.00
2024-03-31T04:38:35.632Z,4.00
2024-03-31T04:39:35.595Z,4.00
2024-03-31T04:40:35.590Z,0.00
2024-03-31T04:41:35.572Z,4.00
2024-03-31T04:42:35.567Z,0.00
2024-03-31T04:43:35.570Z,4.00
2024-03-31T04:44:35.554Z,8.00
2024-03-31T04:45:35.544Z,4.00
2024-03-31T04:46:35.542Z,8.00
2024-03-31T04:47:35.540Z,8.00
2024-03-31T04:48:35.540Z,8.00
2024-03-31T04:49:35.500Z,8.00
2024-03-31T04:50:35.504Z,16.00
2024-03-31T04:51:35.471Z,12.00
2024-03-31T04:52:35.484Z,16.00
2024-03-31T04:53:35.462Z,20.00
2024-03-31T04:54:35.452Z,24.00
2024-03-31T04:55:35.432Z,32.00
2024-03-31T04:56:35.437Z,36.00
2024-03-31T04:57:35.446Z,40.00
2024-03-31T04:58:35.412Z,44.00
2024-03-31T04:59:35.401Z,48.00
2024-03-31T05:00:35.392Z,56.00
2024-03-31T05:01:35.399Z,60.00
2024-03-31T05:02:35.393Z,64.00
2024-03-31T05:03:35.364Z,72.00
2024-03-31T05:04:35.349Z,80.00
2024-03-31T05:05:35.409Z,84.00
2024-03-31T05:06:35.363Z,92.00
2024-03-31T05:07:35.314Z,96.00
2024-03-31T05:08:35.323Z,104.00
2024-03-31T05:09:35.300Z,116.00
2024-03-31T05:10:35.305Z,120.00
2024-03-31T05:11:35.308Z,124.00
2024-03-31T05:12:35.272Z,136.00
2024-03-31T05:13:35.263Z,140.00
2024-03-31T05:14:35.257Z,144.00
2024-03-31T05:15:35.270Z,148.00
2024-03-31T05:16:35.278Z,152.00
2024-03-31T05:17:35.231Z,160.00
2024-03-31T05:18:35.214Z,168.00
2024-03-31T05:19:35.215Z,176.00
2024-03-31T05:20:35.218Z,184.00
2024-03-31T05:21:35.506Z,192.00
2024-03-31T05:22:36.187Z,196.00
2024-03-31T05:23:35.172Z,208.00
2024-03-31T05:24:35.161Z,220.00
2024-03-31T05:25:35.174Z,228.00
2024-03-31T05:26:35.142Z,236.00
2024-03-31T05:27:35.133Z,244.00
2024-03-31T05:28:42.658Z,260.00
2024-03-31T05:29:37.131Z,276.00
2024-03-31T05:30:35.115Z,288.00
2024-03-31T05:31:35.101Z,300.00
2024-03-31T05:32:35.100Z,316.00
2024-03-31T05:33:35.066Z,336.00
2024-03-31T05:34:35.100Z,348.00
2024-03-31T05:35:35.064Z,368.00
2024-03-31T05:36:35.035Z,384.00
2024-03-31T05:37:35.040Z,396.00
2024-03-31T05:38:35.014Z,408.00
2024-03-31T05:39:35.043Z,428.00
2024-03-31T05:40:34.995Z,448.00
2024-03-31T05:41:34.991Z,468.00
2024-03-31T05:42:34.979Z,492.00
2024-03-31T05:43:34.988Z,508.00
2024-03-31T05:44:34.982Z,524.00
2024-03-31T05:45:34.982Z,528.00
2024-03-31T05:46:34.941Z,532.00
2024-03-31T05:47:34.930Z,536.00
2024-03-31T05:48:34.963Z,544.00
2024-03-31T05:49:34.910Z,548.00
2024-03-31T05:50:34.915Z,556.00
2024-03-31T05:51:34.896Z,568.00
2024-03-31T05:52:35.812Z,584.00
2024-03-31T05:53:34.888Z,604.00
2024-03-31T05:54:34.873Z,620.00
2024-03-31T05:55:37.199Z,648.00
2024-03-31T05:56:34.852Z,680.00
2024-03-31T05:57:34.832Z,708.00
2024-03-31T05:58:34.850Z,728.00
2024-03-31T05:59:34.837Z,740.00
2024-03-31T06:00:34.857Z,748.00
2024-03-31T06:01:34.802Z,760.00
2024-03-31T06:02:34.796Z,772.00
2024-03-31T06:03:34.787Z,788.00
2024-03-31T06:04:34.795Z,796.00
2024-03-31T06:05:34.759Z,808.00
2024-03-31T06:06:34.759Z,812.00
2024-03-31T06:07:34.742Z,816.00
2024-03-31T06:08:34.748Z,812.00
2024-03-31T06:09:34.733Z,808.00
2024-03-31T06:10:37.290Z,804.00
2024-03-31T06:11:35.708Z,804.00
2024-03-31T06:12:34.688Z,808.00
2024-03-31T06:13:34.704Z,824.00
2024-03-31T06:14:34.692Z,840.00
2024-03-31T06:15:34.662Z,864.00
2024-03-31T06:16:34.656Z,888.00
2024-03-31T06:17:34.642Z,912.00
2024-03-31T06:18:34.651Z,948.00
2024-03-31T06:19:34.632Z,992.00
2024-03-31T06:20:34.609Z,1032.00
2024-03-31T06:21:34.608Z,1068.00
2024-03-31T06:22:34.600Z,1088.00
2024-03-31T06:23:34.598Z,1100.00
2024-03-31T06:24:34.579Z,1104.00
2024-03-31T06:25:34.574Z,1120.00
2024-03-31T06:26:34.565Z,1152.00
2024-03-31T06:27:34.561Z,1208.00
2024-03-31T06:28:34.568Z,1280.00
2024-03-31T06:29:34.540Z,1356.00
2024-03-31T06:30:34.514Z,1416.00
2024-03-31T06:31:34.538Z,1464.00
2024-03-31T06:32:34.515Z,1480.00
2024-03-31T06:33:34.486Z,1492.00
2024-03-31T06:34:34.484Z,1512.00
2024-03-31T06:35:34.480Z,1560.00
2024-03-31T06:36:34.453Z,1640.00
2024-03-31T06:37:34.498Z,1744.00
2024-03-31T06:38:34.433Z,1860.00
2024-03-31T06:39:34.438Z,1960.00
2024-03-31T06:40:34.409Z,2028.00
2024-03-31T06:41:34.456Z,2072.00
2024-03-31T06:42:34.422Z,2076.00
2024-03-31T06:43:34.382Z,2080.00
2024-03-31T06:44:34.389Z,2076.00
2024-03-31T06:45:34.370Z,2092.00
2024-03-31T06:46:34.408Z,2152.00
2024-03-31T06:47:34.362Z,2240.00
2024-03-31T06:48:34.332Z,2344.00
2024-03-31T06:49:34.321Z,2456.00
2024-03-31T06:50:34.328Z,2560.00
2024-03-31T06:51:34.326Z,2680.00
2024-03-31T06:52:34.299Z,2840.00
2024-03-31T06:53:34.297Z,3044.00
2024-03-31T06:54:34.273Z,3272.00
2024-03-31T06:55:34.268Z,3516.00
2024-03-31T06:56:34.275Z,3752.00
2024-03-31T06:57:34.255Z,3984.00
2024-03-31T06:58:34.274Z,4216.00
2024-03-31T06:59:34.246Z,4444.00
2024-03-31T07:00:34.229Z,4652.00
2024-03-31T07:01:34.214Z,4812.00
2024-03-31T07:02:34.202Z,4928.00
2024-03-31T07:03:34.225Z,5004.00
2024-03-31T07:04:34.192Z,5012.00
2024-03-31T07:05:34.188Z,4908.00
2024-03-31T07:06:34.165Z,4728.00
2024-03-31T07:07:34.174Z,4576.00
2024-03-31T07:08:34.182Z,4516.00
2024-03-31T07:09:34.170Z,4536.00
2024-03-31T07:10:34.124Z,4592.00
2024-03-31T07:11:34.137Z,4696.00
2024-03-31T07:12:34.117Z,4768.00
2024-03-31T07:13:34.201Z,4848.00
2024-03-31T07:14:34.118Z,4984.00
2024-03-31T07:15:34.077Z,5160.00
2024-03-31T07:16:34.070Z,5328.00
2024-03-31T07:17:34.068Z,5456.00
2024-03-31T07:18:34.046Z,5500.00
2024-03-31T07:19:34.031Z,5504.00
2024-03-31T07:20:34.038Z,5460.00
2024-03-31T07:21:34.026Z,5424.00
2024-03-31T07:22:34.035Z,5428.00
2024-03-31T07:23:33.998Z,5404.00
2024-03-31T07:24:33.980Z,5408.00
2024-03-31T07:25:33.977Z,5416.00
2024-03-31T07:26:33.984Z,5348.00
2024-03-31T07:27:33.963Z,5284.00
2024-03-31T07:28:33.946Z,5260.00
2024-03-31T07:29:34.072Z,5272.00
2024-03-31T07:30:33.925Z,5292.00
2024-03-31T07:31:33.942Z,5208.00
2024-03-31T07:32:33.896Z,5052.00
2024-03-31T07:33:33.895Z,4916.00
2024-03-31T07:34:33.872Z,4844.00
2024-03-31T07:35:34.923Z,4868.00
2024-03-31T07:36:34.288Z,4916.00
2024-03-31T07:37:33.843Z,5008.00
2024-03-31T07:38:33.914Z,5092.00
2024-03-31T07:39:33.843Z,5232.00
2024-03-31T07:40:33.868Z,5420.00
2024-03-31T07:41:33.817Z,5604.00
2024-03-31T07:42:33.803Z,5764.00
2024-03-31T07:43:33.802Z,5904.00
2024-03-31T07:44:33.779Z,6032.00
2024-03-31T07:45:33.810Z,6232.00
2024-03-31T07:46:33.748Z,6436.00
2024-03-31T07:47:34.750Z,6580.00
2024-03-31T07:48:33.735Z,6728.00
2024-03-31T07:49:33.764Z,6880.00
2024-03-31T07:50:33.726Z,7020.00
2024-03-31T07:51:33.706Z,7124.00
2024-03-31T07:52:34.369Z,7180.00
2024-03-31T07:53:33.695Z,7152.00
2024-03-31T07:54:33.707Z,7080.00
2024-03-31T07:55:34.680Z,7012.00
2024-03-31T07:56:33.721Z,6988.00
2024-03-31T07:57:33.658Z,7000.00
2024-03-31T07:58:33.627Z,7020.00
2024-03-31T07:59:33.641Z,7088.00
2024-03-31T08:00:33.638Z,7236.00
2024-03-31T08:01:34.558Z,7408.00
2024-03-31T08:02:33.595Z,7556.00
2024-03-31T08:03:33.601Z,7672.00
2024-03-31T08:04:33.586Z,7712.00
2024-03-31T08:05:33.575Z,7672.00
2024-03-31T08:06:33.570Z,7584.00
2024-03-31T08:07:33.541Z,7480.00
2024-03-31T08:08:33.542Z,7412.00
2024-03-31T08:09:33.524Z,7452.00
2024-03-31T08:10:33.527Z,7588.00
2024-03-31T08:11:33.513Z,7696.00
2024-03-31T08:12:33.496Z,7816.00
2024-03-31T08:13:33.501Z,7952.00
2024-03-31T08:14:33.477Z,8132.00
2024-03-31T08:15:33.464Z,8240.00
2024-03-31T08:16:33.458Z,8220.00
2024-03-31T08:17:34.453Z,8088.00
2024-03-31T08:18:33.493Z,8008.00
2024-03-31T08:19:33.420Z,7988.00
2024-03-31T08:20:33.412Z,8000.00
2024-03-31T08:21:33.398Z,8172.00
2024-03-31T08:22:33.401Z,8512.00
2024-03-31T08:23:33.382Z,9280.00
2024-03-31T08:24:33.375Z,9196.00
2024-03-31T08:25:33.489Z,9368.00
2024-03-31T08:26:33.352Z,9352.00
2024-03-31T08:27:33.360Z,9620.00
2024-03-31T08:28:33.346Z,9892.00
2024-03-31T08:29:33.330Z,10092.00
2024-03-31T08:30:33.322Z,10184.00
2024-03-31T08:31:33.405Z,10212.00
2024-03-31T08:32:33.507Z,10236.00
2024-03-31T08:33:33.317Z,10316.00
2024-03-31T08:34:33.277Z,10372.00
2024-03-31T08:35:33.275Z,10404.00
2024-03-31T08:36:33.277Z,10356.00
2024-03-31T08:37:33.276Z,10272.00
2024-03-31T08:38:33.235Z,10240.00
2024-03-31T08:39:33.243Z,10304.00
2024-03-31T08:40:33.233Z,10400.00
2024-03-31T08:41:33.239Z,10472.00
2024-03-31T08:42:33.201Z,10520.00
2024-03-31T08:43:33.214Z,10644.00
2024-03-31T08:44:33.221Z,10824.00
2024-03-31T08:45:33.201Z,11276.00
2024-03-31T08:46:33.279Z,10996.00
2024-03-31T08:47:33.432Z,11048.00
2024-03-31T08:48:33.193Z,11092.00
2024-03-31T08:49:33.136Z,11056.00
2024-03-31T08:50:33.162Z,10760.00
2024-03-31T08:51:33.116Z,11980.00
2024-03-31T08:52:33.116Z,10652.00
2024-03-31T08:53:33.110Z,11448.00
2024-03-31T08:54:33.929Z,10940.00
2024-03-31T08:55:34.113Z,10912.00
2024-03-31T08:56:33.078Z,10776.00
2024-03-31T08:57:33.061Z,10908.00
2024-03-31T08:58:33.050Z,10924.00
2024-03-31T08:59:33.070Z,11196.00
2024-03-31T09:00:33.078Z,13112.00
2024-03-31T09:01:33.065Z,12020.00
2024-03-31T09:02:33.020Z,12012.00
2024-03-31T09:03:33.009Z,12172.00
2024-03-31T09:04:33.023Z,12948.00
2024-03-31T09:05:32.994Z,14016.00
2024-03-31T09:06:32.973Z,13816.00
2024-03-31T09:07:33.019Z,13244.00
2024-03-31T09:08:40.925Z,12936.00
2024-03-31T09:09:34.986Z,12308.00
2024-03-31T09:10:32.942Z,12176.00
2024-03-31T09:11:32.922Z,12772.00
2024-03-31T09:12:32.908Z,12992.00
2024-03-31T09:13:33.909Z,12976.00
2024-03-31T09:14:32.911Z,12360.00
2024-03-31T09:15:32.889Z,11904.00
2024-03-31T09:16:32.883Z,11356.00
2024-03-31T09:17:32.859Z,10784.00
2024-03-31T09:18:32.884Z,10460.00
2024-03-31T09:19:32.857Z,10156.00
2024-03-31T09:20:32.838Z,9884.00
2024-03-31T09:21:32.831Z,9528.00
2024-03-31T09:22:32.836Z,8904.00
2024-03-31T09:23:32.855Z,8884.00
2024-03-31T09:24:32.785Z,8636.00
2024-03-31T09:25:33.781Z,8584.00
2024-03-31T09:26:32.772Z,8464.00
2024-03-31T09:27:32.772Z,8576.00
2024-03-31T09:28:32.781Z,8940.00
2024-03-31T09:29:32.772Z,9024.00
2024-03-31T09:30:32.738Z,8996.00
2024-03-31T09:31:32.732Z,9012.00
2024-03-31T09:32:32.758Z,9080.00
2024-03-31T09:33:32.750Z,9084.00
2024-03-31T09:34:32.707Z,9036.00
2024-03-31T09:35:32.690Z,8992.00
2024-03-31T09:36:32.678Z,9048.00
2024-03-31T09:37:32.704Z,9144.00
2024-03-31T09:38:32.666Z,9188.00
2024-03-31T09:39:32.679Z,9256.00
2024-03-31T09:40:32.647Z,9272.00
2024-03-31T09:41:32.636Z,9320.00
2024-03-31T09:42:32.653Z,9368.00
2024-03-31T09:43:32.609Z,9392.00
2024-03-31T09:44:32.613Z,9380.00
2024-03-31T09:45:32.593Z,9344.00
2024-03-31T09:46:32.584Z,9352.00
2024-03-31T09:47:32.577Z,9300.00
2024-03-31T09:48:32.558Z,9152.00
2024-03-31T09:49:32.557Z,9044.00
2024-03-31T09:50:32.546Z,8960.00
2024-03-31T09:51:32.553Z,9092.00
2024-03-31T09:52:32.530Z,9348.00
2024-03-31T09:53:32.546Z,9532.00
2024-03-31T09:54:32.495Z,9756.00
2024-03-31T09:55:32.501Z,9816.00
2024-03-31T09:56:32.497Z,9868.00
2024-03-31T09:57:32.472Z,9784.00
2024-03-31T09:58:32.464Z,9880.00
2024-03-31T09:59:32.446Z,9820.00
2024-03-31T10:00:32.452Z,9860.00
2024-03-31T10:01:32.445Z,10036.00
2024-03-31T10:02:32.420Z,9972.00
2024-03-31T10:03:32.413Z,10024.00
2024-03-31T10:04:32.435Z,10056.00
2024-03-31T10:05:32.394Z,10048.00
2024-03-31T10:06:32.404Z,10120.00
2024-03-31T10:07:32.380Z,10232.00
2024-03-31T10:08:32.364Z,10344.00
2024-03-31T10:09:32.358Z,10512.00
2024-03-31T10:10:32.365Z,10688.00
2024-03-31T10:11:32.353Z,10940.00
2024-03-31T10:12:32.328Z,11064.00
2024-03-31T10:13:36.163Z,11164.00
2024-03-31T10:14:33.299Z,11292.00
2024-03-31T10:15:32.326Z,11448.00
2024-03-31T10:16:32.285Z,11452.00
2024-03-31T10:17:32.272Z,11328.00
2024-03-31T10:18:32.266Z,11152.00
2024-03-31T10:19:32.257Z,11056.00
2024-03-31T10:20:32.258Z,10948.00
2024-03-31T10:21:32.219Z,10760.00
2024-03-31T10:22:32.232Z,11232.00
2024-03-31T10:23:32.207Z,11268.00
2024-03-31T10:24:32.211Z,10856.00
2024-03-31T10:25:32.222Z,10948.00
2024-03-31T10:26:32.180Z,10584.00
2024-03-31T10:27:32.188Z,10212.00
2024-03-31T10:28:32.163Z,10060.00
2024-03-31T10:29:32.169Z,10084.00
2024-03-31T10:30:32.165Z,10284.00
2024-03-31T10:31:32.162Z,10236.00
2024-03-31T10:32:32.162Z,10284.00
2024-03-31T10:33:39.942Z,10192.00
2024-03-31T10:34:34.157Z,10148.00
2024-03-31T10:35:32.089Z,10196.00
2024-03-31T10:36:32.083Z,10316.00
2024-03-31T10:37:32.070Z,10380.00
2024-03-31T10:38:32.085Z,10632.00
2024-03-31T10:39:32.089Z,10880.00
2024-03-31T10:40:32.063Z,11068.00
2024-03-31T10:41:33.127Z,11388.00
2024-03-31T10:42:32.052Z,11584.00
2024-03-31T10:43:32.037Z,11868.00
2024-03-31T10:44:32.024Z,12592.00
2024-03-31T10:45:32.009Z,13812.00
2024-03-31T10:46:31.986Z,14412.00
2024-03-31T10:47:32.003Z,14696.00
2024-03-31T10:48:32.027Z,14720.00
2024-03-31T10:49:31.953Z,15296.00
2024-03-31T10:50:31.960Z,15136.00
2024-03-31T10:51:31.931Z,14720.00
2024-03-31T10:52:33.552Z,14704.00
2024-03-31T10:53:32.971Z,14408.00
2024-03-31T10:54:31.920Z,14004.00
2024-03-31T10:55:31.943Z,13956.00
2024-03-31T10:56:32.275Z,13788.00
2024-03-31T10:57:31.902Z,13640.00
2024-03-31T10:58:31.862Z,13940.00
2024-03-31T10:59:31.851Z,14216.00
2024-03-31T11:00:31.840Z,14268.00
2024-03-31T11:01:31.837Z,15296.00
2024-03-31T11:02:31.854Z,15488.00
2024-03-31T11:03:31.853Z,15936.00
2024-03-31T11:04:31.806Z,15776.00
2024-03-31T11:05:31.800Z,15136.00
2024-03-31T11:06:31.813Z,15328.00
2024-03-31T11:07:31.819Z,15360.00
2024-03-31T11:08:31.794Z,15328.00
2024-03-31T11:09:31.763Z,16224.00
2024-03-31T11:10:31.745Z,16608.00
2024-03-31T11:11:31.773Z,17376.00
2024-03-31T11:12:31.740Z,17632.00
2024-03-31T11:13:31.720Z,17408.00
2024-03-31T11:14:31.716Z,17824.00
2024-03-31T11:15:31.729Z,17984.00
2024-03-31T11:16:31.705Z,18048.00
2024-03-31T11:17:31.696Z,17824.00
2024-03-31T11:18:31.678Z,17216.00
2024-03-31T11:19:31.686Z,17312.00
2024-03-31T11:20:31.667Z,17280.00
2024-03-31T11:21:31.672Z,17376.00
2024-03-31T11:22:31.633Z,16704.00
2024-03-31T11:23:31.633Z,16448.00
2024-03-31T11:24:31.616Z,17024.00
2024-03-31T11:25:31.630Z,17280.00
2024-03-31T11:26:31.617Z,17184.00
2024-03-31T11:27:31.602Z,17440.00
2024-03-31T11:28:31.580Z,17280.00
2024-03-31T11:29:31.568Z,17152.00
2024-03-31T11:30:31.602Z,16992.00
2024-03-31T11:31:31.586Z,17024.00
2024-03-31T11:32:31.591Z,17152.00
2024-03-31T11:33:31.549Z,16896.00
2024-03-31T11:34:31.544Z,16928.00
2024-03-31T11:35:31.527Z,16832.00
2024-03-31T11:36:31.573Z,17088.00
2024-03-31T11:37:31.520Z,16896.00
2024-03-31T11:38:31.506Z,17088.00
2024-03-31T11:39:31.499Z,17312.00
2024-03-31T11:40:31.475Z,17312.00
2024-03-31T11:41:31.462Z,17344.00
2024-03-31T11:42:31.458Z,17280.00
2024-03-31T11:43:31.462Z,17152.00
2024-03-31T11:44:31.508Z,16736.00
2024-03-31T11:45:31.416Z,16640.00
2024-03-31T11:46:31.406Z,16576.00
2024-03-31T11:47:32.464Z,16000.00
2024-03-31T11:48:31.486Z,14736.00
2024-03-31T11:49:31.399Z,15424.00
2024-03-31T11:50:31.380Z,15584.00
2024-03-31T11:51:31.388Z,15712.00
2024-03-31T11:52:31.368Z,15744.00
2024-03-31T11:53:31.390Z,15904.00
2024-03-31T11:54:31.331Z,15808.00
2024-03-31T11:55:31.330Z,15392.00
2024-03-31T11:56:31.319Z,15424.00
2024-03-31T11:57:31.322Z,15264.00
2024-03-31T11:58:31.313Z,14944.00
2024-03-31T11:59:31.332Z,14912.00
2024-03-31T12:00:31.301Z,15040.00
2024-03-31T12:01:31.280Z,15008.00
2024-03-31T12:02:31.303Z,15040.00
2024-03-31T12:03:31.264Z,14912.00
2024-03-31T12:04:31.232Z,14532.00
2024-03-31T12:05:31.253Z,14272.00
2024-03-31T12:06:31.217Z,14212.00
2024-03-31T12:07:31.218Z,14296.00
2024-03-31T12:08:42.910Z,14432.00
2024-03-31T12:09:33.193Z,13340.00
2024-03-31T12:10:31.180Z,13816.00
2024-03-31T12:11:31.180Z,13872.00
2024-03-31T12:12:31.172Z,13760.00
2024-03-31T12:13:31.151Z,13560.00
2024-03-31T12:14:31.149Z,12168.00
2024-03-31T12:15:31.134Z,12460.00
2024-03-31T12:16:31.143Z,12820.00
2024-03-31T12:17:31.147Z,13892.00
2024-03-31T12:18:31.095Z,14252.00
2024-03-31T12:19:31.086Z,14816.00
2024-03-31T12:20:31.096Z,14912.00
2024-03-31T12:21:31.112Z,14656.00
2024-03-31T12:22:31.087Z,14944.00
2024-03-31T12:23:31.052Z,14976.00
2024-03-31T12:24:31.122Z,14880.00
2024-03-31T12:25:31.030Z,14392.00
2024-03-31T12:26:31.032Z,14328.00
2024-03-31T12:27:31.019Z,14628.00
2024-03-31T12:28:31.008Z,14680.00
2024-03-31T12:29:30.994Z,14976.00